createdAt,value
2022-10-26T00:00:13.626Z,14.60
2022-10-26T00:02:40.252Z,14.60
2022-10-26T00:05:07.297Z,14.60
2022-10-26T00:07:33.986Z,14.60
2022-10-26T00:10:00.635Z,14.60
2022-10-26T00:12:27.225Z,14.60
2022-10-26T00:14:54.170Z,14.50
2022-10-26T00:17:20.762Z,14.60
2022-10-26T00:19:47.342Z,14.60
2022-10-26T00:22:13.944Z,14.50
2022-10-26T00:24:40.523Z,14.50
2022-10-26T00:27:07.160Z,14.50
2022-10-26T00:29:33.783Z,14.50
2022-10-26T00:32:00.472Z,14.50
2022-10-26T00:34:27.064Z,14.50
2022-10-26T00:36:53.666Z,14.50
2022-10-26T00:39:20.374Z,14.50
2022-10-26T00:41:46.961Z,14.50
2022-10-26T00:44:47.342Z,14.50
2022-10-26T00:47:25.112Z,14.50
2022-10-26T00:49:55.752Z,14.40
2022-10-26T00:52:23.531Z,14.50
2022-10-26T00:54:51.101Z,14.40
2022-10-26T00:57:18.923Z,14.50
2022-10-26T00:59:46.357Z,14.40
2022-10-26T01:02:13.357Z,14.40
2022-10-26T01:04:40.046Z,14.40
2022-10-26T01:07:08.392Z,14.40
2022-10-26T01:09:36.164Z,14.40
2022-10-26T01:12:02.826Z,14.40
2022-10-26T01:14:29.938Z,14.40
2022-10-26T01:17:23.756Z,14.40
2022-10-26T01:20:17.711Z,14.40
2022-10-26T01:23:13.863Z,14.40
2022-10-26T01:26:08.206Z,14.40
2022-10-26T01:29:20.281Z,14.40
2022-10-26T01:32:19.875Z,14.40
2022-10-26T01:35:26.962Z,14.40
2022-10-26T01:37:59.311Z,14.50
2022-10-26T01:40:33.198Z,14.50
2022-10-26T01:43:04.124Z,14.50
2022-10-26T01:45:33.742Z,14.50
2022-10-26T01:48:03.155Z,14.50
2022-10-26T01:50:31.150Z,14.50
2022-10-26T01:52:57.728Z,14.50
2022-10-26T01:55:39.398Z,14.50
2022-10-26T01:58:23.035Z,14.40
2022-10-26T02:01:17.612Z,14.40
2022-10-26T02:03:52.927Z,14.50
2022-10-26T02:06:29.187Z,14.50
2022-10-26T02:09:22.176Z,14.40
2022-10-26T02:11:52.468Z,14.20
2022-10-26T02:14:33.787Z,14.10
2022-10-26T02:17:09.835Z,14.00
2022-10-26T02:19:48.972Z,13.90
2022-10-26T02:22:41.400Z,13.90
2022-10-26T02:25:11.799Z,14.00
2022-10-26T02:27:43.470Z,14.10
2022-10-26T02:30:12.207Z,14.20
2022-10-26T02:32:44.941Z,14.20
2022-10-26T02:35:13.409Z,14.20
2022-10-26T02:37:42.050Z,14.30
2022-10-26T02:40:14.242Z,14.20
2022-10-26T02:42:44.100Z,14.20
2022-10-26T02:45:16.551Z,14.20
2022-10-26T02:47:43.531Z,14.20
2022-10-26T02:50:10.654Z,14.20
2022-10-26T02:53:15.587Z,14.30
2022-10-26T02:55:50.546Z,14.30
2022-10-26T02:58:25.837Z,14.30
2022-10-26T03:00:53.327Z,14.30
2022-10-26T03:03:20.647Z,14.40
2022-10-26T03:05:47.497Z,14.30
2022-10-26T03:08:14.176Z,14.40
2022-10-26T03:10:43.366Z,14.40
2022-10-26T03:13:11.333Z,14.40
2022-10-26T03:15:38.580Z,14.40
2022-10-26T03:18:06.433Z,14.40
2022-10-26T03:20:34.980Z,14.40
2022-10-26T03:23:02.198Z,14.40
2022-10-26T03:25:29.100Z,14.40
2022-10-26T03:28:03.671Z,14.40
2022-10-26T03:30:31.281Z,14.40
2022-10-26T03:32:57.983Z,14.40
2022-10-26T03:35:24.742Z,14.40
2022-10-26T03:37:52.012Z,14.40
2022-10-26T03:40:18.902Z,14.40
2022-10-26T03:42:45.570Z,14.40
2022-10-26T03:45:12.207Z,14.30
2022-10-26T03:47:49.015Z,14.30
2022-10-26T03:50:18.258Z,14.20
2022-10-26T03:52:46.193Z,14.20
2022-10-26T03:55:13.063Z,14.30
2022-10-26T03:57:43.890Z,14.30
2022-10-26T04:00:12.550Z,14.30
2022-10-26T04:02:39.189Z,14.30
2022-10-26T04:05:06.409Z,14.30
2022-10-26T04:07:33.099Z,14.30
2022-10-26T04:09:59.676Z,14.30
2022-10-26T04:12:26.376Z,14.40
2022-10-26T04:14:53.127Z,14.30
2022-10-26T04:17:19.797Z,14.30
2022-10-26T04:19:46.414Z,14.30
2022-10-26T04:22:13.105Z,14.30
2022-10-26T04:24:39.803Z,14.30
2022-10-26T04:27:06.636Z,14.30
2022-10-26T04:29:33.254Z,14.30
2022-10-26T04:31:59.902Z,14.30
2022-10-26T04:34:26.495Z,14.30
2022-10-26T04:36:53.063Z,14.30
2022-10-26T04:39:19.631Z,14.30
2022-10-26T04:41:46.256Z,14.30
2022-10-26T04:44:12.861Z,14.30
2022-10-26T04:46:39.494Z,14.30
2022-10-26T04:49:06.083Z,14.30
2022-10-26T04:51:32.690Z,14.40
2022-10-26T04:53:59.329Z,14.30
2022-10-26T04:56:25.935Z,14.30
2022-10-26T04:58:55.371Z,14.40
2022-10-26T05:01:22.486Z,14.30
2022-10-26T05:03:50.782Z,14.30
2022-10-26T05:06:17.480Z,14.30
2022-10-26T05:08:44.043Z,14.30
2022-10-26T05:11:10.996Z,14.30
2022-10-26T05:13:37.629Z,14.30
2022-10-26T05:16:04.462Z,14.30
2022-10-26T05:18:31.093Z,14.30
2022-10-26T05:20:57.675Z,14.30
2022-10-26T05:23:24.652Z,14.20
2022-10-26T05:25:51.358Z,14.20
2022-10-26T05:28:18.876Z,14.20
2022-10-26T05:30:46.720Z,14.20
2022-10-26T05:33:14.498Z,14.20
2022-10-26T05:35:41.565Z,14.20
2022-10-26T05:38:14.550Z,14.20
2022-10-26T05:40:52.674Z,14.20
2022-10-26T05:43:20.607Z,14.20
2022-10-26T05:45:47.573Z,14.20
2022-10-26T05:48:14.180Z,14.20
2022-10-26T05:50:40.741Z,14.20
2022-10-26T05:53:07.341Z,14.20
2022-10-26T05:55:34.783Z,14.20
2022-10-26T05:58:01.906Z,14.20
2022-10-26T06:00:30.134Z,14.20
2022-10-26T06:03:18.272Z,14.20
2022-10-26T06:06:07.482Z,14.20
2022-10-26T06:08:34.494Z,14.20
2022-10-26T06:11:02.751Z,14.20
2022-10-26T06:13:29.612Z,14.10
2022-10-26T06:16:08.035Z,14.10
2022-10-26T06:18:54.151Z,14.10
2022-10-26T06:21:28.156Z,14.10
2022-10-26T06:24:09.492Z,14.10
2022-10-26T06:27:14.607Z,14.10
2022-10-26T06:30:01.535Z,14.20
2022-10-26T06:32:28.678Z,14.10
2022-10-26T06:35:25.743Z,14.10
2022-10-26T06:37:54.070Z,14.10
2022-10-26T06:40:22.407Z,14.00
2022-10-26T06:42:49.482Z,14.00
2022-10-26T06:45:17.345Z,14.00
2022-10-26T06:48:02.716Z,14.00
2022-10-26T06:50:37.945Z,14.00
2022-10-26T06:53:16.802Z,14.00
2022-10-26T06:55:45.689Z,14.00
2022-10-26T06:58:17.292Z,14.00
2022-10-26T07:00:50.073Z,14.10
2022-10-26T07:03:16.927Z,14.00
2022-10-26T07:05:45.093Z,14.00
2022-10-26T07:08:12.555Z,14.00
2022-10-26T07:10:39.799Z,13.90
2022-10-26T07:13:07.344Z,14.00
2022-10-26T07:15:35.324Z,14.00
2022-10-26T07:18:05.619Z,14.00
2022-10-26T07:20:36.103Z,14.00
2022-10-26T07:23:02.901Z,14.00
2022-10-26T07:25:29.729Z,14.10
2022-10-26T07:27:59.951Z,14.10
2022-10-26T07:30:28.154Z,14.10
2022-10-26T07:33:09.927Z,14.10
2022-10-26T07:35:36.887Z,14.20
2022-10-26T07:38:04.396Z,14.20
2022-10-26T07:40:31.235Z,14.20
2022-10-26T07:42:59.729Z,14.20
2022-10-26T07:45:29.516Z,14.20
2022-10-26T07:47:56.717Z,14.20
2022-10-26T07:50:24.542Z,14.20
2022-10-26T07:52:51.592Z,14.20
2022-10-26T07:55:19.161Z,14.30
2022-10-26T07:57:47.525Z,14.30
2022-10-26T08:00:17.567Z,14.30
2022-10-26T08:02:44.859Z,14.30
2022-10-26T08:05:11.576Z,14.30
2022-10-26T08:07:43.283Z,14.40
2022-10-26T08:10:10.507Z,14.40
2022-10-26T08:12:37.653Z,14.40
2022-10-26T08:15:04.938Z,14.40
2022-10-26T08:17:31.558Z,14.40
2022-10-26T08:19:58.724Z,14.40
2022-10-26T08:22:25.708Z,14.40
2022-10-26T08:24:52.270Z,14.40
2022-10-26T08:27:18.842Z,14.40
2022-10-26T08:29:45.422Z,14.40
2022-10-26T08:32:12.021Z,14.40
2022-10-26T08:34:38.701Z,14.40
2022-10-26T08:37:05.330Z,14.40
2022-10-26T08:39:31.939Z,14.40
2022-10-26T08:42:21.875Z,14.40
2022-10-26T08:44:52.422Z,14.40
2022-10-26T08:47:46.396Z,14.50
2022-10-26T08:50:39.283Z,14.50
2022-10-26T08:53:31.177Z,14.50
2022-10-26T08:56:06.594Z,14.50
2022-10-26T08:58:41.607Z,14.60
2022-10-26T09:01:09.281Z,14.60
2022-10-26T09:03:36.067Z,14.60
2022-10-26T09:06:20.604Z,14.60
2022-10-26T09:09:07.475Z,14.60
2022-10-26T09:11:49.527Z,14.60
2022-10-26T09:14:40.546Z,14.70
2022-10-26T09:17:35.670Z,14.70
2022-10-26T09:20:05.373Z,14.70
2022-10-26T09:23:03.063Z,14.70
2022-10-26T09:25:40.477Z,14.80
2022-10-26T09:28:15.700Z,14.90
2022-10-26T09:30:45.093Z,15.00
2022-10-26T09:33:19.718Z,15.00
2022-10-26T09:36:04.981Z,15.00
2022-10-26T09:38:32.916Z,15.00
2022-10-26T09:41:25.247Z,15.10
2022-10-26T09:44:25.931Z,15.10
2022-10-26T09:47:25.102Z,15.10
2022-10-26T09:50:15.140Z,15.20
2022-10-26T09:52:41.795Z,15.20
2022-10-26T09:55:12.148Z,15.20
2022-10-26T09:57:42.734Z,15.30
2022-10-26T10:00:16.758Z,15.40
2022-10-26T10:02:52.590Z,15.40
2022-10-26T10:05:50.147Z,15.40
2022-10-26T10:08:25.405Z,15.50
2022-10-26T10:11:04.011Z,15.50
2022-10-26T10:13:36.872Z,15.60
2022-10-26T10:16:08.235Z,15.60
2022-10-26T10:18:36.218Z,15.60
2022-10-26T10:21:05.069Z,15.70
2022-10-26T10:23:49.400Z,15.80
2022-10-26T10:26:16.128Z,15.80
2022-10-26T10:28:43.602Z,15.90
2022-10-26T10:31:21.805Z,16.00
2022-10-26T10:33:49.363Z,16.10
2022-10-26T10:36:19.995Z,16.10
2022-10-26T10:38:48.878Z,16.20
2022-10-26T10:41:28.131Z,16.20
2022-10-26T10:44:22.558Z,16.20
2022-10-26T10:46:49.295Z,16.20
2022-10-26T10:49:23.196Z,16.20
2022-10-26T10:51:50.094Z,16.30
2022-10-26T10:54:38.903Z,16.30
2022-10-26T10:57:15.448Z,16.40
2022-10-26T11:00:20.442Z,16.40
2022-10-26T11:03:33.006Z,16.50
2022-10-26T11:06:27.426Z,16.60
2022-10-26T11:09:02.315Z,16.60
2022-10-26T11:11:36.188Z,16.60
2022-10-26T11:14:14.803Z,16.70
2022-10-26T11:16:47.126Z,16.70
2022-10-26T11:19:24.567Z,16.80
2022-10-26T11:21:55.943Z,16.80
2022-10-26T11:24:34.482Z,16.80
2022-10-26T11:27:17.215Z,16.80
2022-10-26T11:30:10.116Z,16.80
2022-10-26T11:32:51.102Z,16.80
2022-10-26T11:35:32.674Z,16.80
2022-10-26T11:38:10.191Z,16.80
2022-10-26T11:40:54.619Z,16.80
2022-10-26T11:43:39.862Z,16.80
2022-10-26T11:46:06.510Z,16.90
2022-10-26T11:48:58.753Z,16.90
2022-10-26T11:51:46.813Z,17.00
2022-10-26T11:56:55.810Z,17.20
2022-10-26T11:59:29.218Z,17.20
2022-10-26T12:02:05.848Z,17.20
2022-10-26T12:04:36.381Z,17.10
2022-10-26T12:07:09.517Z,17.10
2022-10-26T12:09:40.768Z,17.10
2022-10-26T12:12:35.143Z,17.20
2022-10-26T12:18:54.981Z,17.10
2022-10-26T12:21:27.366Z,17.10
2022-10-26T12:23:55.273Z,17.10
2022-10-26T12:26:24.950Z,17.10
2022-10-26T12:29:25.121Z,17.10
2022-10-26T12:31:51.735Z,17.10
2022-10-26T12:34:31.728Z,17.10
2022-10-26T12:36:58.348Z,17.10
2022-10-26T12:39:34.343Z,17.20
2022-10-26T12:42:26.609Z,17.20
2022-10-26T12:44:53.394Z,17.20
2022-10-26T12:47:28.791Z,17.30
2022-10-26T12:50:07.258Z,17.30
2022-10-26T12:52:40.125Z,17.50
2022-10-26T12:55:12.533Z,17.50
2022-10-26T12:58:08.588Z,17.60
2022-10-26T13:00:41.661Z,17.50
2022-10-26T13:03:14.631Z,17.40
2022-10-26T13:06:17.182Z,17.40
2022-10-26T13:08:58.553Z,17.40
2022-10-26T13:11:32.449Z,17.40
2022-10-26T13:14:02.618Z,17.30
2022-10-26T13:16:30.069Z,17.30
2022-10-26T13:18:57.937Z,17.30
2022-10-26T13:21:26.296Z,17.30
2022-10-26T13:23:57.493Z,17.40
2022-10-26T13:26:26.524Z,17.50
2022-10-26T13:28:57.225Z,17.50
2022-10-26T13:31:32.681Z,17.50
2022-10-26T13:34:18.096Z,17.60
2022-10-26T13:37:10.484Z,17.70
2022-10-26T13:43:15.703Z,17.70
2022-10-26T13:46:26.457Z,17.80
2022-10-26T13:49:28.944Z,17.90
2022-10-26T13:51:56.973Z,18.00
2022-10-26T13:54:49.752Z,18.10
2022-10-26T13:57:35.361Z,18.10
2022-10-26T14:00:09.641Z,18.20
2022-10-26T14:02:42.939Z,18.30
2022-10-26T14:05:13.308Z,18.40
2022-10-26T14:07:55.896Z,18.50
2022-10-26T14:10:45.424Z,18.70
2022-10-26T14:13:19.395Z,19.00
2022-10-26T14:15:46.703Z,19.10
2022-10-26T14:18:20.040Z,19.20
2022-10-26T14:21:17.324Z,19.30
2022-10-26T14:23:58.769Z,19.40
2022-10-26T14:26:31.330Z,19.40
2022-10-26T14:29:00.918Z,19.50
2022-10-26T14:31:27.556Z,19.40
2022-10-26T14:33:55.827Z,19.30
2022-10-26T14:36:28.015Z,19.30
2022-10-26T14:38:59.299Z,19.20
2022-10-26T14:41:27.354Z,19.00
2022-10-26T14:43:57.175Z,19.00
2022-10-26T14:46:24.112Z,18.90
2022-10-26T14:48:52.593Z,18.80
2022-10-26T14:51:21.824Z,18.70
2022-10-26T14:53:51.276Z,18.70
2022-10-26T14:56:28.604Z,18.60
2022-10-26T14:58:56.511Z,18.60
2022-10-26T15:01:23.290Z,18.60
2022-10-26T15:03:55.360Z,18.50
2022-10-26T15:06:43.920Z,18.50
2022-10-26T15:09:38.723Z,18.50
2022-10-26T15:12:06.201Z,18.40
2022-10-26T15:14:34.434Z,18.30
2022-10-26T15:17:01.337Z,18.30
2022-10-26T15:19:28.524Z,18.20
2022-10-26T15:21:55.752Z,18.20
2022-10-26T15:24:25.067Z,18.20
2022-10-26T15:26:52.281Z,18.20
2022-10-26T15:29:36.036Z,18.10
2022-10-26T15:34:32.632Z,18.20
2022-10-26T15:36:59.283Z,18.20
2022-10-26T15:39:26.601Z,18.30
2022-10-26T15:41:53.571Z,18.20
2022-10-26T15:44:21.910Z,18.20
2022-10-26T15:46:50.009Z,18.20
2022-10-26T15:49:21.166Z,18.20
2022-10-26T15:51:49.068Z,18.20
2022-10-26T15:54:15.997Z,18.30
2022-10-26T15:56:45.948Z,18.40
2022-10-26T15:59:18.742Z,18.40
2022-10-26T16:01:45.823Z,18.50
2022-10-26T16:04:12.698Z,18.50
2022-10-26T16:06:41.278Z,18.50
2022-10-26T16:09:13.645Z,18.50
2022-10-26T16:11:40.280Z,18.50
2022-10-26T16:14:07.073Z,18.50
2022-10-26T16:16:33.705Z,18.40
2022-10-26T16:21:50.234Z,18.20
2022-10-26T16:24:16.899Z,18.10
2022-10-26T16:26:55.967Z,18.10
2022-10-26T16:29:22.768Z,18.00
2022-10-26T16:31:49.406Z,18.00
2022-10-26T16:34:16.103Z,17.90
2022-10-26T16:36:42.728Z,17.90
2022-10-26T16:39:11.812Z,17.90
2022-10-26T16:41:38.471Z,17.90
2022-10-26T16:44:05.150Z,17.80
2022-10-26T16:46:31.781Z,17.80
2022-10-26T16:48:59.736Z,17.80
2022-10-26T16:51:28.049Z,17.80
2022-10-26T16:53:56.484Z,17.80
2022-10-26T16:56:26.639Z,17.80
2022-10-26T16:58:53.533Z,17.70
2022-10-26T17:01:21.097Z,17.70
2022-10-26T17:03:49.871Z,17.70
2022-10-26T17:06:17.637Z,17.70
2022-10-26T17:08:44.656Z,17.60
2022-10-26T17:11:17.162Z,17.60
2022-10-26T17:13:44.554Z,17.60
2022-10-26T17:16:13.034Z,17.60
2022-10-26T17:18:40.973Z,17.60
2022-10-26T17:21:09.124Z,17.50
2022-10-26T17:23:36.099Z,17.50
2022-10-26T17:26:05.121Z,17.50
2022-10-26T17:28:32.476Z,17.50
2022-10-26T17:31:04.433Z,17.50
2022-10-26T17:33:35.587Z,17.40
2022-10-26T17:36:03.316Z,17.40
2022-10-26T17:38:33.611Z,17.40
2022-10-26T17:41:05.236Z,17.40
2022-10-26T17:43:33.145Z,17.40
2022-10-26T17:46:01.673Z,17.40
2022-10-26T17:48:31.427Z,17.30
2022-10-26T17:50:59.201Z,17.40
2022-10-26T17:53:26.115Z,17.40
2022-10-26T17:56:03.864Z,17.40
2022-10-26T17:58:31.458Z,17.40
2022-10-26T18:01:03.195Z,17.40
2022-10-26T18:03:29.903Z,17.40
2022-10-26T18:05:56.666Z,17.40
2022-10-26T18:08:23.304Z,17.40
2022-10-26T18:10:51.484Z,17.40
2022-10-26T18:13:18.794Z,17.30
2022-10-26T18:15:45.862Z,17.30
2022-10-26T18:18:12.941Z,17.30
2022-10-26T18:20:39.667Z,17.30
2022-10-26T18:23:06.379Z,17.30
2022-10-26T18:25:33.736Z,17.20
2022-10-26T18:28:00.331Z,17.20
2022-10-26T18:30:27.140Z,17.20
2022-10-26T18:32:54.224Z,17.20
2022-10-26T18:35:21.587Z,17.20
2022-10-26T18:37:48.423Z,17.20
2022-10-26T18:40:15.413Z,17.10
2022-10-26T18:42:42.415Z,17.10
2022-10-26T18:45:09.287Z,17.00
2022-10-26T18:47:35.952Z,17.00
2022-10-26T18:50:02.545Z,16.90
2022-10-26T18:52:29.878Z,16.90
2022-10-26T18:54:56.810Z,16.90
2022-10-26T18:57:28.377Z,16.90
2022-10-26T18:59:55.337Z,16.90
2022-10-26T19:02:22.869Z,16.80
2022-10-26T19:04:51.523Z,16.80
2022-10-26T19:07:18.139Z,16.80
2022-10-26T19:09:44.767Z,16.80
2022-10-26T19:12:11.387Z,16.70
2022-10-26T19:14:37.992Z,16.70
2022-10-26T19:17:04.632Z,16.70
2022-10-26T19:19:31.244Z,16.80
2022-10-26T19:22:00.023Z,16.80
2022-10-26T19:24:26.671Z,16.80
2022-10-26T19:26:54.008Z,16.90
2022-10-26T19:29:20.702Z,16.90
2022-10-26T19:31:50.835Z,16.90
2022-10-26T19:34:17.847Z,16.90
2022-10-26T19:36:46.169Z,16.80
2022-10-26T19:39:17.137Z,16.80
2022-10-26T19:41:44.801Z,16.90
2022-10-26T19:44:12.282Z,16.90
2022-10-26T19:46:39.866Z,16.80
2022-10-26T19:49:06.960Z,16.80
2022-10-26T19:51:33.842Z,16.80
2022-10-26T19:54:03.861Z,16.80
2022-10-26T19:56:31.375Z,16.80
2022-10-26T19:58:58.115Z,16.80
2022-10-26T20:01:25.033Z,16.80
2022-10-26T20:03:51.806Z,16.80
2022-10-26T20:06:18.658Z,16.80
2022-10-26T20:08:47.740Z,16.80
2022-10-26T20:11:17.009Z,16.70
2022-10-26T20:13:44.945Z,16.70
2022-10-26T20:16:12.929Z,16.80
2022-10-26T20:18:43.980Z,16.80
2022-10-26T20:21:14.861Z,16.70
2022-10-26T20:23:42.406Z,16.70
2022-10-26T20:26:09.226Z,16.70
2022-10-26T20:28:35.898Z,16.70
2022-10-26T20:31:02.575Z,16.60
2022-10-26T20:33:29.196Z,16.70
2022-10-26T20:35:57.559Z,16.60
2022-10-26T20:38:24.613Z,16.60
2022-10-26T20:40:58.991Z,16.50
2022-10-26T20:43:27.102Z,16.50
2022-10-26T20:45:54.606Z,16.50
2022-10-26T20:48:22.077Z,16.50
2022-10-26T20:51:04.869Z,16.50
2022-10-26T20:53:43.246Z,16.50
2022-10-26T20:56:25.975Z,16.50
2022-10-26T20:58:57.739Z,16.50
2022-10-26T21:01:31.848Z,16.50
2022-10-26T21:04:00.597Z,16.40
2022-10-26T21:06:27.779Z,16.40
2022-10-26T21:08:56.336Z,16.40
2022-10-26T21:11:24.715Z,16.40
2022-10-26T21:13:53.505Z,16.30
2022-10-26T21:18:51.877Z,16.30
2022-10-26T21:21:18.496Z,16.30
2022-10-26T21:23:45.084Z,16.30
2022-10-26T21:26:11.723Z,16.20
2022-10-26T21:28:45.623Z,16.20
2022-10-26T21:31:14.691Z,16.20
2022-10-26T21:33:41.744Z,16.20
2022-10-26T21:36:12.019Z,16.20
2022-10-26T21:38:39.219Z,16.10
2022-10-26T21:41:12.890Z,16.10
2022-10-26T21:43:41.609Z,16.10
2022-10-26T21:46:09.256Z,16.10
2022-10-26T21:48:36.163Z,16.10
2022-10-26T21:51:04.732Z,16.10
2022-10-26T21:53:31.631Z,16.10
2022-10-26T21:56:10.940Z,16.00
2022-10-26T21:58:37.848Z,16.10
2022-10-26T22:01:08.474Z,16.10
2022-10-26T22:03:35.631Z,16.10
2022-10-26T22:06:03.007Z,16.00
2022-10-26T22:08:30.144Z,16.00
2022-10-26T22:10:57.394Z,16.00
2022-10-26T22:13:24.483Z,16.00
2022-10-26T22:16:05.590Z,16.00
2022-10-26T22:18:35.828Z,16.00
2022-10-26T22:21:03.491Z,16.10
2022-10-26T22:23:34.354Z,15.90
2022-10-26T22:26:03.001Z,15.90
2022-10-26T22:28:32.118Z,15.90
2022-10-26T22:31:04.662Z,15.90
2022-10-26T22:33:31.893Z,15.90
2022-10-26T22:36:07.119Z,15.80
2022-10-26T22:38:33.971Z,15.80
2022-10-26T22:41:00.746Z,15.80
2022-10-26T22:43:27.503Z,15.70
2022-10-26T22:46:08.689Z,15.70
2022-10-26T22:48:35.744Z,15.70
2022-10-26T22:51:10.210Z,15.60
2022-10-26T22:53:37.582Z,15.60
2022-10-26T22:56:05.949Z,15.60
2022-10-26T22:58:32.600Z,15.60
2022-10-26T23:01:03.983Z,15.60
2022-10-26T23:03:30.664Z,15.50
2022-10-26T23:05:57.897Z,15.50
2022-10-26T23:08:24.680Z,15.50
2022-10-26T23:10:51.767Z,15.60
2022-10-26T23:13:18.352Z,15.50
2022-10-26T23:15:45.089Z,15.50
2022-10-26T23:18:11.695Z,15.50
2022-10-26T23:20:38.554Z,15.50
2022-10-26T23:23:05.131Z,15.50
2022-10-26T23:25:31.719Z,15.50
2022-10-26T23:27:58.289Z,15.50
2022-10-26T23:30:24.941Z,15.50
2022-10-26T23:32:51.809Z,15.50
2022-10-26T23:35:18.787Z,15.50
2022-10-26T23:37:45.425Z,15.50
2022-10-26T23:40:12.386Z,15.50
2022-10-26T23:42:38.996Z,15.40
2022-10-26T23:45:05.979Z,15.40
2022-10-26T23:47:32.577Z,15.40
2022-10-26T23:49:59.199Z,15.40
2022-10-26T23:52:25.836Z,15.40
2022-10-26T23:54:52.440Z,15.40
2022-10-26T23:57:19.089Z,15.40
2022-10-26T23:59:45.753Z,15.40
